Portada
METAR-TAF:

METAR-TAF

Aeroports :

Split, Croàcia

latitud: 43-32N, longitud: 016-18E, altitud: 19 m

Observació

L'informe es va fer fa 16 minuts, a les 02:30 UTC
Vent 3 kt amb direcció variable
Temperatura 18°C
Humitat 56%
Pressió 1018 hPa
Visibilitat 10 km o més
sense núvols per sota de 1500 mi sense presència de cumulonimbus.

METAR: LDSP 290230Z AUTO VRB03KT CAVOK 18/09 Q1018 NOSIG

Hora: 04:46 (02:46 UTC)

Pronòstic

L'informe es va fer fa 3 hores i 21 minuts, a les 23:25 UTC
Pronòstic vàlid del 29 a les 00 UTC al 30 a les 00 UTC
Vent 7 kt del Nord-Oest
Visibilitat 10 km o més
sense núvols per sota de 1500 mi sense presència de cumulonimbus.
Evolucionant progressivament
l' 29 a les 10 UTC al 29 a les 12 UTC
Vent 10 kt del Sud-Oest
Evolucionant progressivament
l' 29 a les 15 UTC al 29 a les 17 UTC
Vent 6 kt del Oest/Nord-Oest

TAF: LDSP 282325Z 2900/3000 32007KT CAVOK TX27/2912Z TN19/2904Z BECMG 2910/2912 23010KT BECMG 2915/2917 30006KT

Observacions i pronòstics meteorològics de més de 4000 aeroports (METAR i TAF).

Les estacions disponibles són els punts grocs i vermells al mapa.

Posi el ratolí al punt desitjat per veure el nom de l'estació.

Feu clic per veure les observacions i els pronòstics meteorològics.

Per canviar el mapa: feu clic els botons verds amb una creu de color negre per apropar; al botó verd amb un guió per allunyar la imatge; o en les fletxes verdes per a mapes adjacents.


METAR-TAF: